Time;durP1;ratioP1;P1;durP2;ratioP2;P2;SDS_P1;SDS_P2;PMS_P1;PMS_P2;Temp;Humidity;BMP_temperature;BMP_pressure;BME280_temperature;BME280_humidity;BME280_pressure;Samples;Min_cycle;Max_cycle;Signal;HPM_P1;HPM_P2
2023/05/02 00:02:17;;;;;;;71.90;41.08;;;;;;;13.23;100.00;100861.72;8316231;28;20439;-63
2023/05/02 00:06:17;;;;;;;70.03;41.08;;;;;;;13.13;100.00;100862.75;8323427;28;20143;-62
2023/05/02 00:10:18;;;;;;;65.20;39.80;;;;;;;13.01;100.00;100864.81;8322665;28;20041;-63
2023/05/02 00:14:18;;;;;;;68.90;40.08;;;;;;;12.94;100.00;100871.81;8329843;28;20473;-63
2023/05/02 00:18:19;;;;;;;70.63;40.05;;;;;;;12.76;100.00;100878.13;8326271;28;20049;-62
2023/05/02 00:22:20;;;;;;;66.45;40.28;;;;;;;12.70;100.00;100879.56;8327172;28;20045;-63
2023/05/02 00:26:20;;;;;;;68.75;39.80;;;;;;;12.63;100.00;100883.00;8327067;28;20606;-63
2023/05/02 00:30:21;;;;;;;75.95;42.95;;;;;;;12.57;100.00;100883.59;8326564;28;20063;-63
2023/05/02 00:34:23;;;;;;;76.53;43.95;;;;;;;12.79;100.00;100884.13;8325608;28;20037;-63
2023/05/02 00:38:23;;;;;;;77.15;42.70;;;;;;;12.83;100.00;100888.25;8325398;28;20418;-63
2023/05/02 00:42:24;;;;;;;80.88;43.60;;;;;;;12.88;100.00;100887.81;8325513;28;20160;-63
2023/05/02 00:46:24;;;;;;;77.38;42.55;;;;;;;12.83;100.00;100881.94;8326199;28;20794;-64
2023/05/02 00:50:26;;;;;;;77.82;44.60;;;;;;;12.68;100.00;100896.97;8346799;28;20041;-63
2023/05/02 00:54:27;;;;;;;87.10;47.72;;;;;;;12.59;100.00;100903.28;8324889;28;20472;-60
2023/05/02 00:58:29;;;;;;;96.25;49.58;;;;;;;12.46;100.00;100898.16;8325132;28;20504;-60
2023/05/02 01:02:37;;;;;;;95.22;51.42;;;;;;;12.37;100.00;100908.97;8325331;28;20057;-60
2023/05/02 01:11:06;;;;;;;96.28;51.47;;;;;;;12.37;100.00;100922.53;8352386;27;20404;-59
2023/05/02 01:15:15;;;;;;;95.72;50.63;;;;;;;12.35;100.00;100914.56;8349422;28;20049;-59
2023/05/02 01:19:25;;;;;;;96.57;50.20;;;;;;;12.45;100.00;100922.69;8349025;28;20092;-59
2023/05/02 01:23:52;;;;;;;95.07;50.95;;;;;;;12.49;100.00;100934.97;8349381;28;20041;-59
2023/05/02 01:28:26;;;;;;;94.80;49.60;;;;;;;12.53;100.00;100947.25;8349831;28;20045;-59
2023/05/02 01:32:29;;;;;;;110.32;55.10;;;;;;;12.45;100.00;100939.84;8349118;28;20068;-62
2023/05/02 01:36:32;;;;;;;102.63;53.17;;;;;;;12.47;100.00;100948.66;8349869;28;20503;-63
2023/05/02 01:40:33;;;;;;;108.05;53.70;;;;;;;12.39;100.00;100944.97;8350104;28;20132;-62
2023/05/02 01:44:36;;;;;;;95.78;51.33;;;;;;;12.34;100.00;100944.50;8349558;28;20407;-63
2023/05/02 01:48:37;;;;;;;96.80;52.05;;;;;;;12.23;100.00;100940.06;8350280;28;20045;-59
2023/05/02 01:52:39;;;;;;;106.50;54.30;;;;;;;12.25;100.00;100948.06;8349954;28;20049;-59
2023/05/02 01:56:42;;;;;;;106.63;53.15;;;;;;;12.25;100.00;100964.34;8350019;28;20112;-60
2023/05/02 02:00:44;;;;;;;108.78;51.67;;;;;;;12.18;100.00;100974.91;8349372;28;20036;-61
2023/05/02 02:04:47;;;;;;;107.03;52.90;;;;;;;12.16;100.00;100976.88;8347594;28;20037;-60
2023/05/02 02:08:48;;;;;;;99.72;48.75;;;;;;;12.08;100.00;100973.16;8344787;28;20124;-60
2023/05/02 02:12:53;;;;;;;106.43;50.08;;;;;;;12.04;100.00;100977.16;8348602;28;20038;-60
2023/05/02 02:16:57;;;;;;;105.30;49.28;;;;;;;12.08;100.00;100973.16;8348871;28;20041;-61
2023/05/02 02:20:59;;;;;;;88.68;41.95;;;;;;;12.04;100.00;100994.25;8321110;28;20084;-61
2023/05/02 02:25:00;;;;;;;94.28;41.63;;;;;;;12.03;100.00;100987.13;8325492;28;20029;-64
2023/05/02 02:29:01;;;;;;;88.68;43.63;;;;;;;12.01;100.00;100985.56;8326975;28;20044;-64
2023/05/02 02:33:02;;;;;;;92.47;42.78;;;;;;;11.99;100.00;100984.84;8327134;28;20037;-64
2023/05/02 02:37:10;;;;;;;97.38;45.95;;;;;;;11.96;100.00;101001.38;8326114;28;20040;-63
2023/05/02 02:41:22;;;;;;;104.53;46.60;;;;;;;12.01;100.00;100988.28;8326736;28;20052;-62
2023/05/02 02:45:33;;;;;;;102.07;46.33;;;;;;;11.96;100.00;100995.94;8326356;28;20073;-63
2023/05/02 02:49:58;;;;;;;107.97;50.97;;;;;;;11.99;100.00;101006.50;8324726;28;20037;-63
2023/05/02 02:54:08;;;;;;;105.00;49.60;;;;;;;12.01;100.00;101005.38;8341501;28;20037;-62
2023/05/02 02:58:19;;;;;;;105.20;48.80;;;;;;;12.05;100.00;101000.53;8325620;28;20050;-63
2023/05/02 03:02:26;;;;;;;108.13;49.53;;;;;;;12.01;100.00;101004.53;8325360;28;20117;-63
2023/05/02 03:06:28;;;;;;;109.28;50.70;;;;;;;12.04;100.00;101009.69;8326282;28;20055;-63
2023/05/02 03:10:30;;;;;;;105.68;50.42;;;;;;;12.11;100.00;101010.84;8325624;28;20576;-63
2023/05/02 03:14:30;;;;;;;99.93;47.83;;;;;;;12.13;100.00;101019.69;8325442;28;20489;-63
2023/05/02 03:18:32;;;;;;;108.45;50.78;;;;;;;12.13;100.00;101014.28;8324858;28;20037;-63
2023/05/02 03:22:32;;;;;;;101.13;49.17;;;;;;;12.14;100.00;101024.09;8324432;28;20116;-63
2023/05/02 03:26:34;;;;;;;103.75;50.25;;;;;;;12.20;100.00;101020.84;8323719;28;20115;-63
2023/05/02 03:30:39;;;;;;;106.50;51.05;;;;;;;12.17;100.00;101021.13;8305318;28;20033;-63
2023/05/02 03:34:40;;;;;;;111.90;50.13;;;;;;;12.16;100.00;101019.38;8322417;28;20125;-63
2023/05/02 03:38:42;;;;;;;107.18;49.75;;;;;;;12.17;100.00;101029.25;8322843;28;20045;-63
2023/05/02 03:42:45;;;;;;;110.53;51.05;;;;;;;12.13;100.00;101031.38;8324978;28;20478;-62
2023/05/02 03:46:56;;;;;;;123.45;54.47;;;;;;;12.10;100.00;101031.66;8323717;28;20467;-62
2023/05/02 03:50:57;;;;;;;118.10;54.22;;;;;;;12.07;100.00;101028.38;8324165;28;20036;-62
2023/05/02 03:55:00;;;;;;;115.93;51.40;;;;;;;12.07;100.00;101037.34;8339411;28;20036;-62
2023/05/02 03:59:02;;;;;;;113.47;50.92;;;;;;;12.09;100.00;101039.91;8323962;28;20249;-63
2023/05/02 04:03:03;;;;;;;116.75;52.70;;;;;;;12.14;100.00;101037.66;8320354;28;20045;-60
2023/05/02 04:07:06;;;;;;;107.68;47.90;;;;;;;12.14;100.00;101034.94;8350116;28;20033;-61
2023/05/02 04:11:08;;;;;;;116.28;52.38;;;;;;;12.16;100.00;101051.91;8354714;28;20419;-60
2023/05/02 04:15:10;;;;;;;101.55;47.90;;;;;;;12.15;100.00;101056.50;8324722;28;20059;-61
2023/05/02 04:19:10;;;;;;;99.53;44.05;;;;;;;12.17;100.00;101059.91;8318323;28;20527;-60
2023/05/02 04:23:13;;;;;;;90.22;40.20;;;;;;;12.20;100.00;101069.63;8314380;28;20118;-60
2023/05/02 04:27:14;;;;;;;84.38;39.42;;;;;;;12.21;100.00;101076.75;8322838;28;20041;-60
2023/05/02 04:31:15;;;;;;;77.85;36.65;;;;;;;12.24;100.00;101081.91;8323088;28;20057;-60
2023/05/02 04:35:17;;;;;;;78.28;35.80;;;;;;;12.21;100.00;101088.47;8322891;28;20067;-62
2023/05/02 04:39:18;;;;;;;76.43;34.58;;;;;;;12.22;100.00;101086.59;8322801;28;20117;-61
2023/05/02 04:43:29;;;;;;;76.78;36.00;;;;;;;12.24;100.00;101093.63;8325819;28;20045;-61
2023/05/02 04:47:34;;;;;;;67.20;33.08;;;;;;;12.25;100.00;101106.19;8321646;28;20120;-60
2023/05/02 04:51:34;;;;;;;82.60;36.78;;;;;;;12.23;100.00;101101.91;8322921;28;20052;-62
2023/05/02 04:55:35;;;;;;;89.55;38.63;;;;;;;12.28;100.00;101099.59;8322246;28;20095;-62
2023/05/02 04:59:37;;;;;;;84.07;38.08;;;;;;;12.29;100.00;101104.06;8320933;28;20099;-64
2023/05/02 05:03:38;;;;;;;77.00;36.40;;;;;;;12.28;100.00;101108.63;8322464;28;20116;-64
2023/05/02 05:07:40;;;;;;;76.20;34.92;;;;;;;12.30;100.00;101113.91;8318391;28;20058;-64
2023/05/02 05:11:44;;;;;;;61.97;29.23;;;;;;;12.34;100.00;101123.47;8321232;28;20095;-64
2023/05/02 05:15:46;;;;;;;64.60;30.50;;;;;;;12.38;100.00;101128.47;8322085;28;20040;-62
2023/05/02 05:19:47;;;;;;;70.45;32.65;;;;;;;12.35;100.00;101139.59;8319158;28;20504;-61
2023/05/02 05:23:48;;;;;;;71.30;33.83;;;;;;;12.35;100.00;101138.75;8321047;28;20415;-62
2023/05/02 05:27:55;;;;;;;64.32;32.35;;;;;;;12.33;100.00;101148.88;8320870;28;20330;-62
2023/05/02 05:31:56;;;;;;;66.15;31.08;;;;;;;12.35;100.00;101155.03;8299012;28;20339;-62
2023/05/02 05:36:10;;;;;;;52.58;25.95;;;;;;;12.50;100.00;101148.25;8285359;28;20531;-60
2023/05/02 05:40:11;;;;;;;57.13;28.20;;;;;;;12.41;100.00;101155.31;8334566;28;20605;-60
2023/05/02 05:44:13;;;;;;;53.53;26.38;;;;;;;12.37;100.00;101153.03;8300261;28;20412;-60
2023/05/02 05:48:14;;;;;;;55.03;25.58;;;;;;;12.39;100.00;101170.03;8280496;28;20069;-60
2023/05/02 05:52:18;;;;;;;60.75;27.05;;;;;;;12.39;100.00;101178.16;8302373;28;20049;-61
2023/05/02 05:56:19;;;;;;;57.80;26.45;;;;;;;12.42;100.00;101183.31;8324824;28;20049;-61
2023/05/02 06:00:28;;;;;;;57.65;27.42;;;;;;;12.38;100.00;101188.13;8325723;28;20037;-61
2023/05/02 06:04:29;;;;;;;61.72;26.58;;;;;;;12.27;100.00;101199.09;8327684;28;20124;-61
2023/05/02 06:08:30;;;;;;;66.57;27.77;;;;;;;12.21;100.00;101201.47;8325783;28;20515;-62
2023/05/02 06:12:30;;;;;;;58.28;25.48;;;;;;;12.16;100.00;101196.44;8327481;28;20092;-61
2023/05/02 06:16:31;;;;;;;58.45;26.25;;;;;;;12.06;100.00;101211.81;8325601;28;20403;-61
2023/05/02 06:20:32;;;;;;;59.85;26.10;;;;;;;12.02;100.00;101223.91;8342260;28;20515;-62
2023/05/02 06:24:33;;;;;;;58.65;26.95;;;;;;;11.90;100.00;101224.97;8327413;28;20111;-62
2023/05/02 06:28:33;;;;;;;64.00;27.75;;;;;;;11.91;100.00;101223.97;8326370;28;20046;-61
2023/05/02 06:32:34;;;;;;;59.47;25.58;;;;;;;11.87;100.00;101234.19;8326927;28;20411;-62
2023/05/02 06:36:34;;;;;;;59.63;25.30;;;;;;;11.83;100.00;101240.88;8326267;28;20068;-62
2023/05/02 06:40:36;;;;;;;61.45;25.90;;;;;;;11.90;100.00;101249.34;8325521;28;20037;-61
2023/05/02 06:44:36;;;;;;;58.45;24.40;;;;;;;12.02;100.00;101244.72;8324967;28;20139;-61
2023/05/02 06:48:37;;;;;;;60.42;24.92;;;;;;;12.14;100.00;101254.50;8324358;28;20049;-61
2023/05/02 06:52:37;;;;;;;47.85;21.83;;;;;;;12.18;100.00;101261.38;8341917;28;20099;-61
2023/05/02 06:56:38;;;;;;;46.47;20.77;;;;;;;12.41;100.00;101260.25;8325194;28;20403;-61
2023/05/02 07:00:38;;;;;;;43.22;20.58;;;;;;;12.57;100.00;101263.31;8340720;28;20045;-61
2023/05/02 07:04:38;;;;;;;40.17;18.98;;;;;;;12.48;100.00;101274.97;8340668;28;20167;-61
2023/05/02 07:08:39;;;;;;;33.85;16.88;;;;;;;12.46;100.00;101276.97;8323711;28;20502;-61
2023/05/02 07:12:39;;;;;;;35.13;17.52;;;;;;;12.48;100.00;101291.25;8325557;28;20056;-61
2023/05/02 07:16:40;;;;;;;37.40;17.92;;;;;;;12.50;100.00;101284.69;8324766;28;20095;-62
2023/05/02 07:20:41;;;;;;;35.15;16.70;;;;;;;12.49;100.00;101298.38;8325389;28;20044;-62
2023/05/02 07:24:42;;;;;;;27.73;15.45;;;;;;;12.57;100.00;101304.00;8325320;28;20046;-61
2023/05/02 07:28:42;;;;;;;29.25;15.95;;;;;;;12.66;100.00;101305.91;8306530;28;20056;-61
2023/05/02 07:32:43;;;;;;;29.25;15.77;;;;;;;12.78;100.00;101310.28;8323846;28;20065;-62
2023/05/02 07:36:44;;;;;;;28.63;14.57;;;;;;;12.75;100.00;101310.53;8324300;28;20111;-61
2023/05/02 07:40:45;;;;;;;24.25;14.27;;;;;;;12.78;100.00;101315.69;8324150;28;20034;-61
2023/05/02 07:44:46;;;;;;;41.00;16.20;;;;;;;12.76;100.00;101323.09;8323797;28;20041;-62
2023/05/02 07:48:46;;;;;;;30.83;16.48;;;;;;;12.65;100.00;101331.31;8323242;28;20557;-61
2023/05/02 07:52:47;;;;;;;28.92;12.40;;;;;;;12.39;100.00;101332.72;8315366;28;20037;-64
2023/05/02 07:56:47;;;;;;;20.23;8.10;;;;;;;12.23;100.00;101340.47;8322839;28;20033;-63
2023/05/02 08:00:49;;;;;;;13.13;6.03;;;;;;;12.22;100.00;101346.84;8323794;28;20407;-65
2023/05/02 08:04:49;;;;;;;14.35;5.97;;;;;;;12.34;100.00;101343.97;8323718;28;20061;-65
2023/05/02 08:08:50;;;;;;;19.20;6.07;;;;;;;12.57;100.00;101350.13;8323180;28;20029;-65
2023/05/02 08:12:50;;;;;;;12.35;5.50;;;;;;;12.98;100.00;101344.63;8323124;28;20095;-65
2023/05/02 08:16:51;;;;;;;9.82;5.10;;;;;;;13.28;96.54;101358.25;8321989;28;20030;-65
2023/05/02 08:20:53;;;;;;;14.43;4.97;;;;;;;13.36;95.09;101358.41;8323358;28;20071;-65
2023/05/02 08:24:53;;;;;;;8.27;4.22;;;;;;;13.43;94.12;101365.00;8321014;28;20045;-65
2023/05/02 08:28:54;;;;;;;10.57;4.28;;;;;;;13.36;92.09;101366.56;8322513;28;20129;-65
2023/05/02 08:32:54;;;;;;;13.65;3.67;;;;;;;13.31;90.46;101374.25;8322922;28;20053;-65
2023/05/02 08:36:55;;;;;;;8.90;3.58;;;;;;;13.59;90.81;101373.50;8322021;28;20495;-65
2023/05/02 08:40:55;;;;;;;7.57;3.17;;;;;;;14.77;89.22;101368.69;8322065;28;20040;-65
2023/05/02 08:44:56;;;;;;;7.68;3.22;;;;;;;14.49;84.82;101375.88;8322531;28;20132;-65
2023/05/02 08:48:57;;;;;;;4.93;2.05;;;;;;;14.37;83.40;101376.19;8321966;28;20041;-65
2023/05/02 08:52:58;;;;;;;8.95;2.33;;;;;;;14.38;85.63;101389.66;8322297;28;20120;-65
2023/05/02 08:57:02;;;;;;;15.32;2.90;;;;;;;14.39;83.22;101388.63;8320955;28;20041;-66
2023/05/02 09:01:11;;;;;;;8.63;2.20;;;;;;;14.16;80.50;101395.34;8321876;28;20045;-66
2023/05/02 09:05:18;;;;;;;5.05;2.20;;;;;;;14.02;83.10;101403.03;8319611;28;20694;-62
2023/05/02 09:09:18;;;;;;;6.68;2.20;;;;;;;13.92;80.92;101402.16;8321735;28;20565;-63
2023/05/02 09:13:39;;;;;;;7.25;1.90;;;;;;;13.92;80.60;101403.03;8321596;28;20447;-63
2023/05/02 09:17:45;;;;;;;7.75;2.20;;;;;;;14.11;80.98;101410.34;8321382;28;20112;-63
2023/05/02 09:21:45;;;;;;;9.13;2.63;;;;;;;14.51;80.80;101406.53;8321369;28;20057;-63
2023/05/02 09:25:46;;;;;;;7.57;2.58;;;;;;;15.00;75.17;101411.75;8321032;28;20037;-63
2023/05/02 09:29:46;;;;;;;8.73;2.17;;;;;;;14.53;77.28;101420.88;8322657;28;20423;-63
2023/05/02 09:33:47;;;;;;;10.80;2.72;;;;;;;14.37;79.49;101425.16;8327479;28;20053;-63
2023/05/02 09:37:50;;;;;;;8.38;2.67;;;;;;;13.98;79.43;101435.09;8326493;28;20065;-63
2023/05/02 09:41:51;;;;;;;15.32;3.15;;;;;;;14.18;79.13;101439.56;8327740;28;20116;-63
2023/05/02 09:46:00;;;;;;;9.88;2.65;;;;;;;13.99;78.33;101447.69;8317825;28;20049;-63
2023/05/02 09:50:00;;;;;;;86.05;11.95;;;;;;;14.13;78.97;101449.16;8355266;28;20041;-63
2023/05/02 09:54:01;;;;;;;10.23;2.95;;;;;;;14.03;78.54;101454.56;8327588;28;20091;-62
2023/05/02 09:58:02;;;;;;;9.43;3.00;;;;;;;14.25;79.98;101459.81;8327302;28;20116;-62
2023/05/02 10:02:06;;;;;;;12.25;3.40;;;;;;;14.00;78.87;101465.72;8327247;28;20048;-63
2023/05/02 10:06:08;;;;;;;8.43;2.83;;;;;;;13.65;78.11;101465.31;8327398;28;20084;-63
2023/05/02 10:10:13;;;;;;;7.95;2.80;;;;;;;13.66;78.59;101472.47;8326843;28;20123;-63
2023/05/02 10:14:15;;;;;;;7.40;2.90;;;;;;;13.85;79.93;101472.56;8348247;28;20044;-63
2023/05/02 10:18:20;;;;;;;6.28;3.25;;;;;;;13.94;78.57;101482.59;8326975;28;20140;-63
2023/05/02 10:22:21;;;;;;;6.25;3.08;;;;;;;13.95;77.21;101483.44;8326863;28;20139;-63
2023/05/02 10:26:22;;;;;;;9.98;3.58;;;;;;;13.99;77.14;101480.31;8324470;28;20042;-63
2023/05/02 10:30:24;;;;;;;13.77;3.30;;;;;;;13.82;78.89;101483.72;8326406;28;20034;-63
2023/05/02 10:34:26;;;;;;;11.07;3.20;;;;;;;13.73;79.65;101479.09;8326184;28;20430;-63
2023/05/02 10:38:27;;;;;;;7.43;3.15;;;;;;;13.70;79.10;101484.81;8325824;28;20041;-63
2023/05/02 10:42:29;;;;;;;5.93;2.95;;;;;;;13.52;80.19;101497.31;8325507;28;20405;-63
2023/05/02 10:46:34;;;;;;;15.65;5.22;;;;;;;13.38;81.68;101493.09;8325865;28;20033;-63
2023/05/02 10:50:53;;;;;;;13.23;4.60;;;;;;;13.22;81.51;101500.00;8326002;28;20033;-62
2023/05/02 10:55:22;;;;;;;10.38;4.55;;;;;;;13.37;79.74;101506.81;8325596;28;20049;-63
2023/05/02 10:59:27;;;;;;;25.15;4.10;;;;;;;13.27;77.96;101503.19;8292657;28;20046;-63
2023/05/02 11:12:47;;;;;;;7.18;3.00;;;;;;;13.34;74.49;101512.50;8352353;27;20727;-62
2023/05/02 11:17:06;;;;;;;8.93;3.50;;;;;;;13.35;75.57;101506.06;8365140;28;20096;-62
2023/05/02 11:21:28;;;;;;;11.10;3.28;;;;;;;13.32;76.45;101511.75;8350878;28;20065;-62
2023/05/02 11:25:31;;;;;;;14.85;4.15;;;;;;;13.38;77.44;101516.66;8365257;28;20120;-62
2023/05/02 11:29:52;;;;;;;11.60;3.75;;;;;;;13.37;77.74;101515.81;8350103;28;20026;-62
2023/05/02 11:34:01;;;;;;;18.27;4.18;;;;;;;13.21;77.86;101509.97;8349585;28;20083;-65
2023/05/02 11:38:05;;;;;;;16.17;4.38;;;;;;;13.18;78.15;101515.69;8347771;28;20038;-65
2023/05/02 11:42:06;;;;;;;16.85;3.92;;;;;;;13.13;77.26;101523.38;8348392;28;20041;-63
2023/05/02 11:46:06;;;;;;;14.10;4.38;;;;;;;13.14;77.08;101524.22;8349580;28;20048;-63
2023/05/02 11:50:08;;;;;;;11.00;4.18;;;;;;;13.28;77.98;101516.63;8346598;28;20045;-64
2023/05/02 11:54:17;;;;;;;12.75;4.00;;;;;;;13.64;76.90;101518.81;8349265;28;20557;-64
2023/05/02 11:58:20;;;;;;;16.30;4.05;;;;;;;14.53;74.68;101531.56;8347738;28;20492;-64
2023/05/02 12:02:35;;;;;;;11.95;4.30;;;;;;;14.85;69.21;101524.84;8346750;28;20495;-64
2023/05/02 12:06:36;;;;;;;13.13;4.45;;;;;;;15.29;69.60;101529.72;8348013;28;20041;-64
2023/05/02 12:10:37;;;;;;;8.15;3.45;;;;;;;15.23;67.84;101530.28;8348703;28;20631;-64
2023/05/02 12:14:39;;;;;;;11.73;4.30;;;;;;;15.26;67.55;101516.38;8347014;28;20269;-64
2023/05/02 12:18:39;;;;;;;9.73;5.35;;;;;;;16.40;70.78;101516.91;8347884;28;20037;-63
2023/05/02 12:22:40;;;;;;;9.68;4.85;;;;;;;15.50;65.97;101522.22;8332068;28;20045;-64
2023/05/02 12:26:40;;;;;;;8.73;4.20;;;;;;;15.44;66.38;101517.34;8316020;28;20064;-64
2023/05/02 12:30:41;;;;;;;8.25;4.15;;;;;;;15.44;65.69;101522.78;8322974;28;20124;-64
2023/05/02 12:34:41;;;;;;;15.18;4.25;;;;;;;15.60;67.04;101530.38;8325244;28;20132;-64
2023/05/02 12:38:52;;;;;;;11.15;4.85;;;;;;;15.68;66.08;101520.44;8325697;28;20068;-64
2023/05/02 12:43:03;;;;;;;10.88;4.85;;;;;;;14.92;66.19;101531.47;8316873;28;20545;-64
2023/05/02 12:47:03;;;;;;;14.55;4.70;;;;;;;14.87;68.19;101533.75;8325494;28;20072;-64
2023/05/02 12:51:04;;;;;;;14.57;6.03;;;;;;;14.76;68.56;101541.22;8323339;28;20048;-63
2023/05/02 12:55:23;;;;;;;16.50;4.95;;;;;;;14.67;66.85;101558.41;8320452;28;20389;-64
2023/05/02 12:59:27;;;;;;;17.90;5.10;;;;;;;14.91;66.18;101551.50;8291134;28;20034;-61
2023/05/02 13:03:28;;;;;;;11.57;5.85;;;;;;;15.12;66.31;101554.94;8292473;28;20042;-61
2023/05/02 13:07:28;;;;;;;10.77;4.90;;;;;;;15.64;64.84;101550.88;8290195;28;20033;-61
2023/05/02 13:11:29;;;;;;;11.00;4.30;;;;;;;15.42;63.29;101552.09;8305833;28;20034;-60
2023/05/02 13:15:29;;;;;;;13.40;4.00;;;;;;;15.79;60.41;101545.81;8323600;28;20099;-61
2023/05/02 13:19:30;;;;;;;10.98;4.53;;;;;;;16.05;63.13;101546.84;8322137;28;20440;-60
2023/05/02 13:23:30;;;;;;;17.55;4.28;;;;;;;16.17;63.23;101548.38;8321013;28;20034;-60
2023/05/02 13:27:33;;;;;;;10.20;4.60;;;;;;;15.45;60.46;101551.78;8327340;28;20330;-61
2023/05/02 13:31:33;;;;;;;8.95;4.43;;;;;;;15.21;62.65;101554.09;8309061;28;20042;-61
2023/05/02 13:35:33;;;;;;;11.98;4.35;;;;;;;15.47;61.17;101557.09;8300435;28;20452;-61
2023/05/02 13:39:34;;;;;;;8.10;4.28;;;;;;;15.18;61.46;101565.28;8288375;28;20519;-61
2023/05/02 13:43:35;;;;;;;15.75;5.03;;;;;;;15.16;61.93;101571.88;8288349;28;20400;-61
2023/05/02 13:47:35;;;;;;;10.95;4.10;;;;;;;15.07;61.47;101567.28;8287992;28;20049;-60
2023/05/02 13:51:36;;;;;;;10.60;3.72;;;;;;;15.43;60.17;101572.88;8297166;28;20045;-64
2023/05/02 13:55:36;;;;;;;9.60;3.95;;;;;;;16.07;59.99;101569.38;8328643;28;20057;-64
2023/05/02 13:59:37;;;;;;;11.70;4.30;;;;;;;15.69;58.82;101563.06;8310126;28;20042;-63
2023/05/02 14:03:37;;;;;;;7.82;4.22;;;;;;;15.66;59.28;101570.69;8318637;28;20438;-63
2023/05/02 14:07:37;;;;;;;14.50;4.50;;;;;;;15.40;60.49;101578.63;8320203;28;20045;-63
2023/05/02 14:11:38;;;;;;;12.60;3.92;;;;;;;15.23;60.89;101571.16;8315849;28;20067;-64
2023/05/02 14:15:38;;;;;;;9.32;3.85;;;;;;;15.20;61.82;101587.78;8313548;28;20519;-63
2023/05/02 14:19:39;;;;;;;13.48;4.93;;;;;;;15.09;60.69;101581.59;8312997;28;20513;-63
2023/05/02 14:23:39;;;;;;;9.95;4.65;;;;;;;15.32;63.48;101574.88;8326374;28;20030;-57
2023/05/02 14:27:41;;;;;;;11.98;4.97;;;;;;;15.64;61.79;101584.47;8318117;28;20132;-56
2023/05/02 14:31:41;;;;;;;11.35;4.43;;;;;;;15.94;62.52;101574.31;8319422;28;20037;-56
2023/05/02 14:35:42;;;;;;;12.25;4.25;;;;;;;15.53;60.10;101570.13;8333279;28;20049;-56
2023/05/02 14:39:44;;;;;;;14.82;4.80;;;;;;;15.25;60.78;101571.84;8336790;28;20095;-60
2023/05/02 14:43:45;;;;;;;10.73;4.97;;;;;;;14.92;59.60;101574.16;8316059;28;20317;-61
2023/05/02 14:47:45;;;;;;;11.65;5.03;;;;;;;14.80;59.63;101570.72;8331031;28;20054;-60
2023/05/02 14:51:47;;;;;;;10.18;4.75;;;;;;;15.09;60.23;101570.72;8318608;28;20046;-61
2023/05/02 14:55:48;;;;;;;14.20;4.82;;;;;;;14.89;60.04;101567.16;8318446;28;20115;-61
2023/05/02 14:59:48;;;;;;;6.95;3.85;;;;;;;14.82;60.65;101568.72;8317991;28;20042;-61
2023/05/02 15:03:50;;;;;;;9.95;4.07;;;;;;;14.86;59.86;101564.72;8319008;28;20044;-61
2023/05/02 15:07:50;;;;;;;12.38;4.70;;;;;;;14.80;60.19;101568.00;8319065;28;20047;-61
2023/05/02 15:11:51;;;;;;;9.70;4.13;;;;;;;14.54;60.17;101569.53;8318173;28;20045;-61
2023/05/02 15:15:53;;;;;;;10.25;4.68;;;;;;;14.39;60.04;101570.94;8320235;28;20706;-61
2023/05/02 15:19:53;;;;;;;13.25;4.70;;;;;;;14.59;60.94;101567.25;8320550;28;20037;-60
2023/05/02 15:23:54;;;;;;;9.70;4.63;;;;;;;14.57;59.84;101573.81;8318444;28;20037;-60
2023/05/02 15:27:54;;;;;;;8.70;4.55;;;;;;;14.59;58.60;101569.13;8314115;28;20160;-60
2023/05/02 15:31:54;;;;;;;12.93;4.63;;;;;;;14.81;59.74;101567.00;8285540;28;20096;-61
2023/05/02 15:35:57;;;;;;;13.32;4.45;;;;;;;14.90;58.02;101573.44;8283714;28;20057;-60
2023/05/02 15:39:58;;;;;;;7.53;4.70;;;;;;;14.70;57.05;101575.28;8313445;28;20168;-61
2023/05/02 15:43:59;;;;;;;15.05;6.03;;;;;;;14.74;56.91;101582.19;8318605;28;20045;-61
2023/05/02 15:48:00;;;;;;;10.75;5.70;;;;;;;14.98;61.26;101579.06;8318190;28;20049;-61
2023/05/02 15:52:01;;;;;;;11.40;5.25;;;;;;;15.08;59.00;101578.03;8317257;28;20046;-61
2023/05/02 15:56:01;;;;;;;12.32;5.32;;;;;;;15.06;59.38;101571.88;8309630;28;20049;-61
2023/05/02 16:00:02;;;;;;;8.65;5.28;;;;;;;15.19;61.29;101577.88;8308854;28;20187;-60
2023/05/02 16:04:08;;;;;;;10.32;4.43;;;;;;;15.08;56.16;101580.78;8323274;28;20083;-60
2023/05/02 16:08:09;;;;;;;9.63;4.15;;;;;;;15.13;58.37;101588.50;8322566;28;20056;-61
2023/05/02 16:12:09;;;;;;;11.90;5.43;;;;;;;14.84;59.35;101583.03;8323287;28;20487;-61
2023/05/02 16:16:10;;;;;;;7.47;4.22;;;;;;;14.89;58.88;101586.22;8323437;28;20096;-61
2023/05/02 16:20:10;;;;;;;11.95;4.60;;;;;;;14.85;58.73;101595.66;8319610;28;20384;-61
2023/05/02 16:24:11;;;;;;;12.82;6.50;;;;;;;14.82;57.16;101593.22;8298315;28;20033;-61
2023/05/02 16:28:11;;;;;;;10.57;5.72;;;;;;;14.72;56.69;101596.91;8319301;28;20091;-61
2023/05/02 16:32:12;;;;;;;13.30;5.43;;;;;;;14.72;57.11;101588.75;8321273;28;20040;-61
2023/05/02 16:36:13;;;;;;;8.38;4.75;;;;;;;14.64;56.29;101586.72;8297665;28;20447;-60
2023/05/02 16:40:14;;;;;;;9.77;5.47;;;;;;;14.59;56.49;101586.31;8289444;28;20455;-60
2023/05/02 16:44:14;;;;;;;8.50;4.20;;;;;;;14.65;56.86;101582.16;8287732;28;20049;-61
2023/05/02 16:48:15;;;;;;;9.63;4.55;;;;;;;14.58;55.43;101584.56;8289131;28;20042;-61
2023/05/02 16:52:15;;;;;;;12.07;5.38;;;;;;;14.59;55.59;101593.59;8306134;28;20500;-61
2023/05/02 16:56:16;;;;;;;13.35;5.55;;;;;;;14.55;56.14;101598.47;8320958;28;20466;-60
2023/05/02 17:00:17;;;;;;;10.68;5.80;;;;;;;14.62;56.68;101590.59;8323631;28;20048;-61
2023/05/02 17:04:17;;;;;;;9.13;5.30;;;;;;;14.56;56.53;101589.31;8322437;28;20803;-63
2023/05/02 17:08:17;;;;;;;14.30;4.63;;;;;;;14.58;57.88;101592.72;8322350;28;20152;-62
2023/05/02 17:12:21;;;;;;;12.18;5.65;;;;;;;14.58;57.13;101587.28;8337967;28;20045;-62
2023/05/02 17:16:21;;;;;;;15.50;6.60;;;;;;;14.52;56.95;101598.72;8321582;28;20124;-62
2023/05/02 17:20:22;;;;;;;12.02;5.85;;;;;;;14.53;56.70;101589.59;8321404;28;20546;-64
2023/05/02 17:24:23;;;;;;;12.52;5.50;;;;;;;14.46;56.25;101588.44;8321872;28;20110;-65
2023/05/02 17:28:24;;;;;;;10.77;5.07;;;;;;;14.42;57.43;101597.84;8322889;28;20079;-64
2023/05/02 17:32:24;;;;;;;9.38;5.15;;;;;;;14.40;57.64;101599.88;8324917;28;20175;-61
2023/05/02 17:36:25;;;;;;;13.15;5.97;;;;;;;14.36;57.65;101603.84;8320028;28;20049;-61
2023/05/02 17:40:25;;;;;;;11.35;5.43;;;;;;;14.23;57.58;101603.25;8320504;28;20456;-61
2023/05/02 17:44:26;;;;;;;12.68;5.25;;;;;;;14.23;58.07;101603.25;8321540;28;20041;-61
2023/05/02 17:48:26;;;;;;;13.77;5.82;;;;;;;14.05;58.58;101602.13;8317150;28;20033;-61
2023/05/02 17:52:27;;;;;;;10.10;5.70;;;;;;;13.92;58.04;101597.91;8307900;28;20042;-61
2023/05/02 17:56:28;;;;;;;10.80;5.72;;;;;;;13.85;58.51;101606.59;8293809;28;20083;-62
2023/05/02 18:00:29;;;;;;;12.07;5.72;;;;;;;13.80;58.86;101605.31;8317783;28;20061;-61
2023/05/02 18:04:30;;;;;;;8.77;5.30;;;;;;;13.73;58.66;101609.56;8291891;28;20045;-61
2023/05/02 18:08:30;;;;;;;10.98;5.40;;;;;;;13.62;59.91;101612.34;8286232;28;20113;-61
2023/05/02 18:12:31;;;;;;;8.55;5.70;;;;;;;13.50;60.25;101602.53;8285096;28;20125;-61
2023/05/02 18:16:33;;;;;;;12.18;5.47;;;;;;;13.37;62.20;101616.34;8313410;28;20042;-61
2023/05/02 18:20:39;;;;;;;12.93;5.15;;;;;;;13.40;60.78;101612.47;8314269;28;20072;-61
2023/05/02 18:24:39;;;;;;;8.52;4.72;;;;;;;13.42;60.46;101613.22;8310923;28;20108;-61
2023/05/02 18:28:41;;;;;;;12.10;5.70;;;;;;;13.49;61.59;101622.56;8308868;28;20535;-60
2023/05/02 18:32:42;;;;;;;11.70;6.05;;;;;;;13.50;61.87;101621.56;8315230;28;20128;-61
2023/05/02 18:36:43;;;;;;;14.27;5.57;;;;;;;13.37;62.89;101618.19;8349854;28;20044;-61
2023/05/02 18:40:44;;;;;;;14.82;5.60;;;;;;;13.32;62.13;101623.13;8350284;28;20033;-61